Time;durP1;ratioP1;P1;durP2;ratioP2;P2;SDS_P1;SDS_P2;PMS_P1;PMS_P2;Temp;Humidity;BMP_temperature;BMP_pressure;BME280_temperature;BME280_humidity;BME280_pressure;Samples;Min_cycle;Max_cycle;Signal;HPM_P1;HPM_P2
2022/07/20 00:01:48;;;;;;;7.00;6.27;;;;;;;;;;5055381;28;20442;-78
2022/07/20 00:04:17;;;;;;;12.40;7.30;;;;;;;;;;5056060;28;20524;-78
2022/07/20 00:06:44;;;;;;;8.13;7.33;;;;;;;;;;5054681;28;21150;-76
2022/07/20 00:11:56;;;;;;;8.00;7.20;;;;;;;;;;5055322;28;20409;-78
2022/07/20 00:14:23;;;;;;;8.47;7.57;;;;;;;;;;5055088;28;20465;-78
2022/07/20 00:16:51;;;;;;;12.27;7.13;;;;;;;;;;5055175;28;20866;-78
2022/07/20 00:19:20;;;;;;;7.30;6.70;;;;;;;;;;5054143;28;20937;-77
2022/07/20 00:21:47;;;;;;;7.57;6.87;;;;;;;;;;5053926;28;20964;-77
2022/07/20 00:24:14;;;;;;;7.83;7.23;;;;;;;;;;5053663;28;20878;-77
2022/07/20 00:26:41;;;;;;;8.60;7.13;;;;;;;;;;5053534;28;20488;-77
2022/07/20 00:29:08;;;;;;;7.93;7.20;;;;;;;;;;5053931;28;20519;-78
2022/07/20 00:31:36;;;;;;;7.80;6.70;;;;;;;;;;5053731;28;20453;-78
2022/07/20 00:34:03;;;;;;;7.87;7.17;;;;;;;;;;5052935;28;20515;-77
2022/07/20 00:36:31;;;;;;;8.83;8.07;;;;;;;;;;5053593;28;20453;-77
2022/07/20 00:38:58;;;;;;;7.87;7.03;;;;;;;;;;5053862;28;20442;-78
2022/07/20 00:41:25;;;;;;;6.97;6.37;;;;;;;;;;5053635;28;20848;-78
2022/07/20 00:43:56;;;;;;;10.03;6.90;;;;;;;;;;5053137;28;20944;-77
2022/07/20 00:46:23;;;;;;;8.60;7.03;;;;;;;;;;5053680;28;20485;-77
2022/07/20 00:48:50;;;;;;;8.10;7.27;;;;;;;;;;5053161;28;20453;-77
2022/07/20 00:51:17;;;;;;;8.63;7.07;;;;;;;;;;5053386;28;20441;-77
2022/07/20 00:53:45;;;;;;;10.70;6.70;;;;;;;;;;5053738;28;21144;-77
2022/07/20 00:56:12;;;;;;;8.43;6.97;;;;;;;;;;5053427;28;20995;-77
2022/07/20 00:58:39;;;;;;;7.93;7.27;;;;;;;;;;5053027;28;20441;-78
2022/07/20 01:01:06;;;;;;;8.67;7.00;;;;;;;;;;5052979;28;20504;-78
2022/07/20 01:03:34;;;;;;;8.07;7.00;;;;;;;;;;5053028;28;20466;-77
2022/07/20 01:06:01;;;;;;;10.33;7.10;;;;;;;;;;5052917;28;20481;-77
2022/07/20 01:08:28;;;;;;;7.87;7.10;;;;;;;;;;5053051;28;20464;-77
2022/07/20 01:10:57;;;;;;;7.43;6.70;;;;;;;;;;5033651;28;20470;-77
2022/07/20 01:13:24;;;;;;;7.80;6.60;;;;;;;;;;5034280;28;20459;-77
2022/07/20 01:15:52;;;;;;;8.90;6.70;;;;;;;;;;5033945;28;20505;-77
2022/07/20 01:18:19;;;;;;;7.63;6.87;;;;;;;;;;5034258;28;20525;-77
2022/07/20 01:20:47;;;;;;;10.90;8.13;;;;;;;;;;5033981;28;20446;-77
2022/07/20 01:23:15;;;;;;;8.27;6.63;;;;;;;;;;5033986;28;20467;-77
2022/07/20 01:25:43;;;;;;;7.87;7.03;;;;;;;;;;5044434;28;20489;-77
2022/07/20 01:28:11;;;;;;;11.37;7.50;;;;;;;;;;5045520;28;20449;-77
2022/07/20 01:30:38;;;;;;;7.90;7.20;;;;;;;;;;5046185;28;20950;-76
2022/07/20 01:33:06;;;;;;;8.20;7.40;;;;;;;;;;5045283;28;20462;-76
2022/07/20 01:35:33;;;;;;;9.27;7.03;;;;;;;;;;5046374;28;20447;-76
2022/07/20 01:38:00;;;;;;;7.73;7.00;;;;;;;;;;5038866;28;20541;-77
2022/07/20 01:40:28;;;;;;;7.73;7.03;;;;;;;;;;5033341;28;20455;-78
2022/07/20 01:42:55;;;;;;;8.60;7.10;;;;;;;;;;5032636;28;20471;-76
2022/07/20 01:45:23;;;;;;;9.17;7.77;;;;;;;;;;5031559;28;20540;-77
2022/07/20 01:47:50;;;;;;;7.30;6.60;;;;;;;;;;5032709;28;20568;-77
2022/07/20 01:50:17;;;;;;;8.67;7.87;;;;;;;;;;5032510;28;20473;-77
2022/07/20 01:52:44;;;;;;;8.53;7.30;;;;;;;;;;5032062;28;20874;-78
2022/07/20 01:55:11;;;;;;;10.33;7.27;;;;;;;;;;5032244;28;20864;-77
2022/07/20 01:57:39;;;;;;;8.83;8.00;;;;;;;;;;5032467;28;20508;-77
2022/07/20 02:00:07;;;;;;;8.03;7.23;;;;;;;;;;5032090;28;20446;-77
2022/07/20 02:02:34;;;;;;;8.27;7.57;;;;;;;;;;5031351;28;20467;-77
2022/07/20 02:05:01;;;;;;;11.40;7.40;;;;;;;;;;5032369;28;20431;-76
2022/07/20 02:07:28;;;;;;;8.27;7.50;;;;;;;;;;5031618;28;20939;-77
2022/07/20 02:09:55;;;;;;;7.57;6.80;;;;;;;;;;5032109;28;20430;-77
2022/07/20 02:12:22;;;;;;;7.07;6.43;;;;;;;;;;5031705;28;20459;-77
2022/07/20 02:14:50;;;;;;;8.30;7.33;;;;;;;;;;5031416;28;20442;-76
2022/07/20 02:17:17;;;;;;;8.20;7.07;;;;;;;;;;5031737;28;20458;-77
2022/07/20 02:19:44;;;;;;;10.33;7.80;;;;;;;;;;5031468;28;20454;-76
2022/07/20 02:22:11;;;;;;;8.60;7.80;;;;;;;;;;5031923;28;20453;-77
2022/07/20 02:24:38;;;;;;;8.27;7.57;;;;;;;;;;5031846;28;20446;-78
2022/07/20 02:27:05;;;;;;;9.53;6.60;;;;;;;;;;5031855;28;20490;-77
2022/07/20 02:29:32;;;;;;;7.90;6.97;;;;;;;;;;5031249;28;20831;-76
2022/07/20 02:32:01;;;;;;;8.13;7.17;;;;;;;;;;5031394;28;20500;-76
2022/07/20 02:34:28;;;;;;;8.50;6.87;;;;;;;;;;5031622;28;20462;-77
2022/07/20 02:36:55;;;;;;;8.17;7.40;;;;;;;;;;5031398;28;20442;-77
2022/07/20 02:39:22;;;;;;;8.13;6.73;;;;;;;;;;5031458;28;20909;-77
2022/07/20 02:41:49;;;;;;;8.00;7.30;;;;;;;;;;5031450;28;20513;-76
2022/07/20 02:44:16;;;;;;;9.60;7.63;;;;;;;;;;5031469;28;20884;-76
2022/07/20 02:46:43;;;;;;;8.73;7.67;;;;;;;;;;5031607;28;20494;-76
2022/07/20 02:49:11;;;;;;;14.23;7.90;;;;;;;;;;5031894;28;20493;-77
2022/07/20 02:51:38;;;;;;;9.10;7.40;;;;;;;;;;5031873;28;20445;-77
2022/07/20 02:54:05;;;;;;;8.03;7.23;;;;;;;;;;5031171;28;20466;-76
2022/07/20 02:56:32;;;;;;;8.60;6.97;;;;;;;;;;5033376;28;20856;-77
2022/07/20 02:58:59;;;;;;;7.70;6.70;;;;;;;;;;5035627;28;20446;-76
2022/07/20 03:01:26;;;;;;;10.80;7.07;;;;;;;;;;5035050;28;20453;-77
2022/07/20 03:03:53;;;;;;;10.20;7.40;;;;;;;;;;5034832;28;20993;-76
2022/07/20 03:06:22;;;;;;;8.60;6.83;;;;;;;;;;5035181;28;20486;-77
2022/07/20 03:08:49;;;;;;;8.13;7.37;;;;;;;;;;5035169;28;20438;-76
2022/07/20 03:11:16;;;;;;;7.80;7.10;;;;;;;;;;5035034;28;20442;-77
2022/07/20 03:13:43;;;;;;;8.10;7.20;;;;;;;;;;5034740;28;20458;-76
2022/07/20 03:16:10;;;;;;;8.37;6.53;;;;;;;;;;5034601;28;20500;-77
2022/07/20 03:18:37;;;;;;;9.03;8.03;;;;;;;;;;5034885;28;20454;-79
2022/07/20 03:21:04;;;;;;;8.80;8.10;;;;;;;;;;5035004;28;20512;-76
2022/07/20 03:23:32;;;;;;;9.80;9.00;;;;;;;;;;5034783;28;20470;-77
2022/07/20 03:25:59;;;;;;;8.97;8.10;;;;;;;;;;5035068;28;20480;-77
2022/07/20 03:28:26;;;;;;;8.63;7.37;;;;;;;;;;5034867;28;20805;-77
2022/07/20 03:30:53;;;;;;;8.90;7.03;;;;;;;;;;5034658;28;20434;-76
2022/07/20 03:33:20;;;;;;;7.67;6.83;;;;;;;;;;5034186;28;20524;-76
2022/07/20 03:35:48;;;;;;;7.93;7.00;;;;;;;;;;5034401;28;20484;-76
2022/07/20 03:38:15;;;;;;;8.47;7.50;;;;;;;;;;5034434;28;20450;-77
2022/07/20 03:40:44;;;;;;;10.57;6.90;;;;;;;;;;5034536;28;20648;-78
2022/07/20 03:43:11;;;;;;;9.10;7.03;;;;;;;;;;5034194;28;20474;-77
2022/07/20 03:45:38;;;;;;;9.40;7.73;;;;;;;;;;5034579;28;20446;-77
2022/07/20 03:48:05;;;;;;;8.60;7.20;;;;;;;;;;5034365;28;20442;-77
2022/07/20 03:50:32;;;;;;;7.70;6.90;;;;;;;;;;5034816;28;20454;-76
2022/07/20 03:52:59;;;;;;;7.63;6.93;;;;;;;;;;5038494;28;20470;-76
2022/07/20 03:55:26;;;;;;;8.13;7.33;;;;;;;;;;5054912;28;20562;-77
2022/07/20 03:57:54;;;;;;;9.73;7.60;;;;;;;;;;5054739;28;20495;-77
2022/07/20 04:00:21;;;;;;;8.70;7.77;;;;;;;;;;5055628;28;20448;-77
2022/07/20 04:02:48;;;;;;;8.20;7.50;;;;;;;;;;5055918;28;20832;-78
2022/07/20 04:05:15;;;;;;;10.37;8.30;;;;;;;;;;5055794;28;20476;-77
2022/07/20 04:07:43;;;;;;;7.77;7.27;;;;;;;;;;5055301;28;20473;-77
2022/07/20 04:10:11;;;;;;;12.43;7.83;;;;;;;;;;5054623;28;20434;-78
2022/07/20 04:12:38;;;;;;;8.13;7.20;;;;;;;;;;5054592;28;20474;-76
2022/07/20 04:15:07;;;;;;;8.97;8.07;;;;;;;;;;5055551;28;20445;-77
2022/07/20 04:17:34;;;;;;;8.33;7.63;;;;;;;;;;5055295;28;20522;-78
2022/07/20 04:20:04;;;;;;;8.60;6.70;;;;;;;;;;5055351;28;20442;-78
2022/07/20 04:22:31;;;;;;;8.63;7.00;;;;;;;;;;5055154;28;20556;-78
2022/07/20 04:24:58;;;;;;;10.87;7.80;;;;;;;;;;5054370;28;20522;-77
2022/07/20 04:27:25;;;;;;;8.57;7.80;;;;;;;;;;5054499;28;20478;-78
2022/07/20 04:29:52;;;;;;;8.10;7.27;;;;;;;;;;5050967;28;20512;-79
2022/07/20 04:32:20;;;;;;;8.43;7.23;;;;;;;;;;5055158;28;20442;-76
2022/07/20 04:34:47;;;;;;;13.67;7.60;;;;;;;;;;5040626;28;20488;-75
2022/07/20 04:37:14;;;;;;;11.20;9.10;;;;;;;;;;5037207;28;20447;-77
2022/07/20 04:39:41;;;;;;;9.70;8.70;;;;;;;;;;5046555;28;20511;-77
2022/07/20 04:42:08;;;;;;;11.10;7.87;;;;;;;;;;5053112;28;20511;-77
2022/07/20 04:44:35;;;;;;;9.17;7.20;;;;;;;;;;5041466;28;20466;-77
2022/07/20 04:47:02;;;;;;;7.90;7.10;;;;;;;;;;5044331;28;20481;-77
2022/07/20 04:49:31;;;;;;;10.83;7.87;;;;;;;;;;5045720;28;20453;-78
2022/07/20 04:51:58;;;;;;;10.70;7.10;;;;;;;;;;5051588;28;20448;-77
2022/07/20 04:54:25;;;;;;;10.40;8.23;;;;;;;;;;5035785;28;20463;-78
2022/07/20 04:56:52;;;;;;;9.33;8.27;;;;;;;;;;5049205;28;20887;-77
2022/07/20 04:59:19;;;;;;;11.40;8.27;;;;;;;;;;5054394;28;20453;-77
2022/07/20 05:01:46;;;;;;;13.53;7.30;;;;;;;;;;5054065;28;20496;-76
2022/07/20 05:04:13;;;;;;;9.57;7.80;;;;;;;;;;5053431;28;20496;-77
2022/07/20 05:06:42;;;;;;;9.40;7.67;;;;;;;;;;5053499;28;20484;-77
2022/07/20 05:09:10;;;;;;;9.23;8.17;;;;;;;;;;5053644;28;20537;-77
2022/07/20 05:11:37;;;;;;;8.80;7.80;;;;;;;;;;5053933;28;20459;-77
2022/07/20 05:14:08;;;;;;;10.07;7.73;;;;;;;;;;5053010;28;20523;-78
2022/07/20 05:16:35;;;;;;;8.93;7.93;;;;;;;;;;5053109;28;20545;-78
2022/07/20 05:19:02;;;;;;;10.57;7.70;;;;;;;;;;5052465;28;20918;-76
2022/07/20 05:21:29;;;;;;;8.40;7.03;;;;;;;;;;5053676;28;20511;-77
2022/07/20 05:23:58;;;;;;;8.73;6.83;;;;;;;;;;5053009;28;20465;-77
2022/07/20 05:26:25;;;;;;;10.10;7.47;;;;;;;;;;5052841;28;20493;-78
2022/07/20 05:28:52;;;;;;;8.13;7.20;;;;;;;;;;5052957;28;20449;-76
2022/07/20 05:31:19;;;;;;;9.43;7.07;;;;;;;;;;5053145;28;20446;-77
2022/07/20 05:33:46;;;;;;;7.83;6.53;;;;;;;;;;5052048;28;20466;-78
2022/07/20 05:36:14;;;;;;;15.17;7.00;;;;;;;;;;5052120;28;20563;-77
2022/07/20 05:38:41;;;;;;;7.83;6.80;;;;;;;;;;5052210;28;20495;-77
2022/07/20 05:41:10;;;;;;;7.77;6.70;;;;;;;;;;5053207;28;20460;-78
2022/07/20 05:43:37;;;;;;;7.00;5.97;;;;;;;;;;5052994;28;20461;-78
2022/07/20 05:46:04;;;;;;;7.73;6.57;;;;;;;;;;5054109;28;20504;-79
2022/07/20 05:48:32;;;;;;;8.87;7.17;;;;;;;;;;5053264;28;20481;-77
2022/07/20 05:50:59;;;;;;;9.33;6.40;;;;;;;;;;5053471;28;20821;-78
2022/07/20 05:53:26;;;;;;;6.73;6.10;;;;;;;;;;5053183;28;21057;-77
2022/07/20 05:55:53;;;;;;;8.93;6.40;;;;;;;;;;5053610;28;20445;-78
2022/07/20 05:58:22;;;;;;;7.53;6.83;;;;;;;;;;5053119;28;20913;-78
2022/07/20 06:00:49;;;;;;;9.90;7.27;;;;;;;;;;5052611;28;20499;-78
2022/07/20 06:03:16;;;;;;;11.77;6.70;;;;;;;;;;5053982;28;21136;-77
2022/07/20 06:05:43;;;;;;;8.50;7.27;;;;;;;;;;5053722;28;20453;-78
2022/07/20 06:08:10;;;;;;;6.77;6.13;;;;;;;;;;5052618;28;20543;-77
2022/07/20 06:10:37;;;;;;;6.93;6.33;;;;;;;;;;5045242;28;20449;-77
2022/07/20 06:13:05;;;;;;;6.80;6.03;;;;;;;;;;5053595;28;20461;-77
2022/07/20 06:15:33;;;;;;;7.97;6.97;;;;;;;;;;5053355;28;20508;-77
2022/07/20 06:18:01;;;;;;;11.80;8.80;;;;;;;;;;5037530;28;21014;-79
2022/07/20 06:20:28;;;;;;;6.70;6.00;;;;;;;;;;5045806;28;20465;-78
2022/07/20 06:22:55;;;;;;;11.13;6.13;;;;;;;;;;5045060;28;20473;-77
2022/07/20 06:25:23;;;;;;;7.40;6.40;;;;;;;;;;5052560;28;20460;-78
2022/07/20 06:27:50;;;;;;;8.07;7.27;;;;;;;;;;5051853;28;20477;-77
2022/07/20 06:30:17;;;;;;;8.07;6.77;;;;;;;;;;5051123;28;20446;-77
2022/07/20 06:32:45;;;;;;;7.67;6.70;;;;;;;;;;5045752;28;20973;-77
2022/07/20 06:35:12;;;;;;;9.17;6.67;;;;;;;;;;5051133;28;20850;-77
2022/07/20 06:37:40;;;;;;;7.23;6.63;;;;;;;;;;5051512;28;20442;-77
2022/07/20 06:40:08;;;;;;;8.20;7.13;;;;;;;;;;5051293;28;20452;-76
2022/07/20 06:42:35;;;;;;;8.43;6.33;;;;;;;;;;5051086;28;20466;-77
2022/07/20 06:45:02;;;;;;;7.83;6.40;;;;;;;;;;5050743;28;20442;-77
2022/07/20 06:47:29;;;;;;;9.10;6.70;;;;;;;;;;5052663;28;20561;-77
2022/07/20 06:49:57;;;;;;;7.63;6.83;;;;;;;;;;5053373;28;20925;-76
2022/07/20 06:52:24;;;;;;;7.80;6.50;;;;;;;;;;5055492;28;20426;-77
2022/07/20 06:54:51;;;;;;;7.07;6.30;;;;;;;;;;5055156;28;20788;-78
2022/07/20 06:57:18;;;;;;;9.37;7.27;;;;;;;;;;5054426;28;20926;-78
2022/07/20 06:59:46;;;;;;;10.80;7.27;;;;;;;;;;5052988;28;20483;-78
2022/07/20 07:02:13;;;;;;;8.57;7.37;;;;;;;;;;5051220;28;20442;-76
2022/07/20 07:04:40;;;;;;;9.70;7.27;;;;;;;;;;5051153;28;20441;-76
2022/07/20 07:07:09;;;;;;;8.73;7.70;;;;;;;;;;5050732;28;20904;-77
2022/07/20 07:09:36;;;;;;;9.80;7.60;;;;;;;;;;5051220;28;20499;-77
2022/07/20 07:12:03;;;;;;;12.87;8.40;;;;;;;;;;5051636;28;20442;-77
2022/07/20 07:14:30;;;;;;;11.67;7.87;;;;;;;;;;5050582;28;20461;-77
2022/07/20 07:16:57;;;;;;;11.40;8.10;;;;;;;;;;5051685;28;20475;-76
2022/07/20 07:19:24;;;;;;;11.17;8.67;;;;;;;;;;5051427;28;20446;-77
2022/07/20 07:21:51;;;;;;;8.63;7.30;;;;;;;;;;5051214;28;20496;-77
2022/07/20 07:24:19;;;;;;;14.30;8.10;;;;;;;;;;5052579;28;20887;-78
2022/07/20 07:26:46;;;;;;;11.00;7.43;;;;;;;;;;5052106;28;20503;-77
2022/07/20 07:29:14;;;;;;;9.47;7.13;;;;;;;;;;5051380;28;20486;-76
2022/07/20 07:31:41;;;;;;;9.33;8.17;;;;;;;;;;5051186;28;20437;-76
2022/07/20 07:34:08;;;;;;;10.00;8.20;;;;;;;;;;5050697;28;20545;-76
2022/07/20 07:36:35;;;;;;;14.80;8.50;;;;;;;;;;5050511;28;20452;-76
2022/07/20 07:39:02;;;;;;;12.43;8.40;;;;;;;;;;5051997;28;20487;-77
2022/07/20 07:41:31;;;;;;;11.97;9.07;;;;;;;;;;5051174;28;20456;-77
2022/07/20 07:43:57;;;;;;;10.03;8.90;;;;;;;;;;5053620;28;20778;-76
2022/07/20 07:46:25;;;;;;;10.13;9.13;;;;;;;;;;5054530;28;20438;-76
2022/07/20 07:48:52;;;;;;;11.30;9.10;;;;;;;;;;5054486;28;20575;-76
2022/07/20 07:51:19;;;;;;;16.00;9.00;;;;;;;;;;5053952;28;20476;-76
2022/07/20 07:53:46;;;;;;;9.30;7.80;;;;;;;;;;5054253;28;20461;-75
2022/07/20 07:56:13;;;;;;;11.13;8.10;;;;;;;;;;5054384;28;20813;-77
2022/07/20 07:58:41;;;;;;;10.83;8.70;;;;;;;;;;5054360;28;20442;-76
2022/07/20 08:01:08;;;;;;;10.83;8.87;;;;;;;;;;5054071;28;20446;-77
2022/07/20 08:03:35;;;;;;;9.27;8.37;;;;;;;;;;5053133;28;21050;-77
2022/07/20 08:06:02;;;;;;;12.83;8.67;;;;;;;;;;5054322;28;20445;-76
2022/07/20 08:08:30;;;;;;;11.63;9.80;;;;;;;;;;5054360;28;20477;-78
2022/07/20 08:10:57;;;;;;;9.53;8.10;;;;;;;;;;5034730;28;20588;-75
2022/07/20 08:13:24;;;;;;;12.97;9.50;;;;;;;;;;5033439;28;20462;-77
2022/07/20 08:15:52;;;;;;;9.60;8.70;;;;;;;;;;5034551;28;20505;-76
2022/07/20 08:18:19;;;;;;;10.37;9.20;;;;;;;;;;5034410;28;20431;-76
2022/07/20 08:20:46;;;;;;;9.93;7.80;;;;;;;;;;5034091;28;20450;-76
2022/07/20 08:23:13;;;;;;;8.93;8.00;;;;;;;;;;5033396;28;20462;-77
2022/07/20 08:25:40;;;;;;;13.30;8.90;;;;;;;;;;5033997;28;20446;-76
2022/07/20 08:28:11;;;;;;;11.00;8.87;;;;;;;;;;5034024;28;20552;-77
2022/07/20 08:30:39;;;;;;;9.60;8.60;;;;;;;;;;5034082;28;20443;-76
2022/07/20 08:33:07;;;;;;;12.47;8.60;;;;;;;;;;5033723;28;20535;-75
2022/07/20 08:35:34;;;;;;;11.27;10.20;;;;;;;;;;5034300;28;20442;-76
2022/07/20 08:38:01;;;;;;;12.70;8.60;;;;;;;;;;5034173;28;20813;-75
2022/07/20 08:40:29;;;;;;;9.73;7.80;;;;;;;;;;5033528;28;20438;-75
2022/07/20 08:42:56;;;;;;;14.70;8.20;;;;;;;;;;5033036;28;20544;-77
2022/07/20 08:45:23;;;;;;;11.83;7.90;;;;;;;;;;5033804;28;20501;-77
2022/07/20 08:47:51;;;;;;;9.60;8.60;;;;;;;;;;5034492;28;20545;-79
2022/07/20 08:50:23;;;;;;;9.30;8.40;;;;;;;;;;5033435;28;20507;-78
2022/07/20 08:52:52;;;;;;;9.43;8.53;;;;;;;;;;5033000;28;20466;-76
2022/07/20 08:55:20;;;;;;;10.90;8.17;;;;;;;;;;5033129;28;20454;-76
2022/07/20 08:57:47;;;;;;;8.77;7.87;;;;;;;;;;5033725;28;20439;-77
2022/07/20 09:00:15;;;;;;;9.03;7.20;;;;;;;;;;5033608;28;20447;-76
2022/07/20 09:02:49;;;;;;;8.00;7.20;;;;;;;;;;5032340;28;20477;-77
2022/07/20 09:05:16;;;;;;;8.97;7.90;;;;;;;;;;5033025;28;20474;-76
2022/07/20 09:07:46;;;;;;;9.47;8.30;;;;;;;;;;5033118;28;20478;-76
2022/07/20 09:10:14;;;;;;;8.67;8.00;;;;;;;;;;5045981;28;20465;-77
2022/07/20 09:12:51;;;;;;;11.03;7.80;;;;;;;;;;5052746;28;20758;-77
2022/07/20 09:15:20;;;;;;;16.60;7.97;;;;;;;;;;5053405;28;20495;-77
2022/07/20 09:17:47;;;;;;;11.97;8.60;;;;;;;;;;5054042;28;20468;-78
2022/07/20 09:20:14;;;;;;;7.90;7.20;;;;;;;;;;5053299;28;20859;-77
2022/07/20 09:22:41;;;;;;;9.87;7.73;;;;;;;;;;5053159;28;20468;-77
2022/07/20 09:25:11;;;;;;;9.07;8.00;;;;;;;;;;5053799;28;20442;-77
2022/07/20 09:27:38;;;;;;;9.20;7.50;;;;;;;;;;5053037;28;20434;-77
2022/07/20 09:30:06;;;;;;;8.50;7.73;;;;;;;;;;5052715;28;20832;-77
2022/07/20 09:32:35;;;;;;;9.27;8.23;;;;;;;;;;5052972;28;20465;-77
2022/07/20 09:35:02;;;;;;;9.27;8.47;;;;;;;;;;5053301;28;20824;-78
2022/07/20 09:37:39;;;;;;;8.97;8.07;;;;;;;;;;5052522;28;20475;-77
2022/07/20 09:40:07;;;;;;;7.30;6.60;;;;;;;;;;5053189;28;20441;-77
2022/07/20 09:42:39;;;;;;;6.43;5.93;;;;;;;;;;5053289;28;20489;-76
2022/07/20 09:45:19;;;;;;;10.10;7.70;;;;;;;;;;5062971;28;20933;-78
2022/07/20 09:48:01;;;;;;;9.63;7.57;;;;;;;;;;5052143;28;20491;-77
2022/07/20 09:50:29;;;;;;;13.20;6.80;;;;;;;;;;5053147;28;20441;-78
2022/07/20 09:52:56;;;;;;;10.27;6.80;;;;;;;;;;5052858;28;20488;-77
2022/07/20 09:55:23;;;;;;;8.17;6.77;;;;;;;;;;5052172;28;20500;-75
2022/07/20 09:57:52;;;;;;;7.03;6.43;;;;;;;;;;5051934;28;20491;-77
2022/07/20 10:00:19;;;;;;;9.37;6.60;;;;;;;;;;5051172;28;20434;-76
2022/07/20 10:02:48;;;;;;;7.10;5.93;;;;;;;;;;5053451;28;20607;-75
2022/07/20 10:05:15;;;;;;;7.27;6.57;;;;;;;;;;5061399;28;20774;-77
2022/07/20 10:07:43;;;;;;;7.30;6.60;;;;;;;;;;5062322;28;20508;-77
2022/07/20 10:10:11;;;;;;;6.83;6.30;;;;;;;;;;5050170;28;20443;-75
2022/07/20 10:12:38;;;;;;;7.53;6.67;;;;;;;;;;5042082;28;20481;-76
2022/07/20 10:15:09;;;;;;;7.10;6.50;;;;;;;;;;5042850;28;20458;-76
2022/07/20 10:17:36;;;;;;;9.50;6.00;;;;;;;;;;5034915;28;20446;-76
2022/07/20 10:20:04;;;;;;;6.70;6.20;;;;;;;;;;5031430;28;20560;-78
2022/07/20 10:22:31;;;;;;;6.63;6.13;;;;;;;;;;5031298;28;20493;-75
2022/07/20 10:25:16;;;;;;;7.90;6.23;;;;;;;;;;5031499;28;20582;-75
2022/07/20 10:27:43;;;;;;;6.03;5.53;;;;;;;;;;5031490;28;20481;-77
2022/07/20 10:30:17;;;;;;;7.07;6.40;;;;;;;;;;5031039;28;20473;-75
2022/07/20 10:32:52;;;;;;;7.00;6.40;;;;;;;;;;5031176;28;20483;-75
2022/07/20 10:35:27;;;;;;;7.23;6.23;;;;;;;;;;5032102;28;20528;-76
2022/07/20 10:37:54;;;;;;;6.63;6.13;;;;;;;;;;5031142;28;20453;-75
2022/07/20 10:40:22;;;;;;;8.00;6.50;;;;;;;;;;5031004;28;20935;-76
2022/07/20 10:42:50;;;;;;;6.80;6.30;;;;;;;;;;5030996;28;20612;-76
2022/07/20 10:45:37;;;;;;;10.80;6.57;;;;;;;;;;5031088;28;20461;-76
2022/07/20 10:48:17;;;;;;;7.73;6.73;;;;;;;;;;5035109;28;20591;-75
2022/07/20 10:50:46;;;;;;;7.90;6.13;;;;;;;;;;5034304;28;20895;-75
2022/07/20 10:53:32;;;;;;;7.07;6.47;;;;;;;;;;5034609;28;20466;-75
2022/07/20 10:56:00;;;;;;;8.03;6.47;;;;;;;;;;5032311;28;20443;-77
2022/07/20 10:58:28;;;;;;;6.73;5.93;;;;;;;;;;5031519;28;20449;-76
2022/07/20 11:00:58;;;;;;;6.50;6.00;;;;;;;;;;5031040;28;20453;-76
2022/07/20 11:03:27;;;;;;;7.53;6.37;;;;;;;;;;5030369;28;20978;-75
2022/07/20 11:06:02;;;;;;;7.70;6.10;;;;;;;;;;5030804;28;20976;-76
2022/07/20 11:08:29;;;;;;;7.20;6.53;;;;;;;;;;5030307;28;20477;-75
2022/07/20 11:10:56;;;;;;;8.67;6.47;;;;;;;;;;5049588;28;20810;-75
2022/07/20 11:13:23;;;;;;;6.40;5.70;;;;;;;;;;5050059;28;20462;-76
2022/07/20 11:15:52;;;;;;;6.70;6.20;;;;;;;;;;5050691;28;20855;-76
2022/07/20 11:18:21;;;;;;;6.73;6.23;;;;;;;;;;5053563;28;20494;-77
2022/07/20 11:20:49;;;;;;;6.77;6.17;;;;;;;;;;5054186;28;20444;-76
2022/07/20 11:23:16;;;;;;;7.37;6.30;;;;;;;;;;5053768;28;20467;-76
2022/07/20 11:25:48;;;;;;;6.87;6.27;;;;;;;;;;5053964;28;20491;-75
2022/07/20 11:28:17;;;;;;;6.47;5.70;;;;;;;;;;5054095;28;20544;-75
2022/07/20 11:30:44;;;;;;;8.37;6.10;;;;;;;;;;5054191;28;20441;-75
2022/07/20 11:33:11;;;;;;;7.37;6.77;;;;;;;;;;5053578;28;20875;-75
2022/07/20 11:35:39;;;;;;;7.33;6.57;;;;;;;;;;5053676;28;20434;-76
2022/07/20 11:38:06;;;;;;;7.80;7.10;;;;;;;;;;5053769;28;20534;-75
2022/07/20 11:40:33;;;;;;;8.17;7.23;;;;;;;;;;5054333;28;20457;-76
2022/07/20 11:43:07;;;;;;;7.50;6.80;;;;;;;;;;5053692;28;20476;-75
2022/07/20 11:45:34;;;;;;;7.93;7.23;;;;;;;;;;5053808;28;20448;-76
2022/07/20 11:48:03;;;;;;;6.87;6.27;;;;;;;;;;5054448;28;20441;-75
2022/07/20 11:50:32;;;;;;;10.80;5.80;;;;;;;;;;5053996;28;21038;-77
2022/07/20 11:53:01;;;;;;;7.60;6.90;;;;;;;;;;5053204;28;20882;-78
2022/07/20 11:55:34;;;;;;;6.93;6.33;;;;;;;;;;5053654;28;20437;-77
2022/07/20 11:58:01;;;;;;;7.53;6.77;;;;;;;;;;5053899;28;20923;-76
2022/07/20 12:00:29;;;;;;;7.00;6.50;;;;;;;;;;5053487;28;20905;-76
2022/07/20 12:02:56;;;;;;;8.20;7.53;;;;;;;;;;5053201;28;20894;-76
2022/07/20 12:05:23;;;;;;;7.13;6.53;;;;;;;;;;5053178;28;20449;-77
2022/07/20 12:08:09;;;;;;;7.83;7.13;;;;;;;;;;5053677;28;20441;-76
2022/07/20 12:10:38;;;;;;;7.67;7.07;;;;;;;;;;5037475;28;20478;-76
2022/07/20 12:13:05;;;;;;;8.07;6.83;;;;;;;;;;5033616;28;20478;-76
2022/07/20 12:15:33;;;;;;;7.80;7.20;;;;;;;;;;5033957;28;20554;-75
2022/07/20 12:18:00;;;;;;;7.83;7.20;;;;;;;;;;5033708;28;20442;-76
2022/07/20 12:20:27;;;;;;;7.93;7.37;;;;;;;;;;5033871;28;20988;-75
2022/07/20 12:22:55;;;;;;;8.03;7.53;;;;;;;;;;5033654;28;20462;-75
2022/07/20 12:25:22;;;;;;;9.57;7.30;;;;;;;;;;5034190;28;20489;-76
2022/07/20 12:27:50;;;;;;;7.73;7.13;;;;;;;;;;5033746;28;21004;-76
2022/07/20 12:30:25;;;;;;;8.60;7.90;;;;;;;;;;5037254;28;20469;-76
2022/07/20 12:33:03;;;;;;;7.93;7.33;;;;;;;;;;5038243;28;21011;-76
2022/07/20 12:35:30;;;;;;;11.40;7.77;;;;;;;;;;5039320;28;20438;-75
2022/07/20 12:37:57;;;;;;;9.53;8.07;;;;;;;;;;5038985;28;20453;-76
2022/07/20 12:40:36;;;;;;;9.50;8.47;;;;;;;;;;5034167;28;20445;-76
2022/07/20 12:43:05;;;;;;;10.87;7.73;;;;;;;;;;5033699;28;20836;-75
2022/07/20 12:45:32;;;;;;;8.97;8.33;;;;;;;;;;5033486;28;20826;-75
2022/07/20 12:48:00;;;;;;;10.30;9.40;;;;;;;;;;5033386;28;20446;-78
2022/07/20 12:50:27;;;;;;;12.63;10.53;;;;;;;;;;5033441;28;20466;-77
2022/07/20 12:52:54;;;;;;;14.50;11.73;;;;;;;;;;5032764;28;21000;-75
2022/07/20 12:55:21;;;;;;;14.77;11.93;;;;;;;;;;5033061;28;20442;-76
2022/07/20 12:57:48;;;;;;;13.87;12.57;;;;;;;;;;5033309;28;20443;-75
2022/07/20 13:00:17;;;;;;;16.37;12.83;;;;;;;;;;5033041;28;21005;-75
2022/07/20 13:02:44;;;;;;;15.10;13.50;;;;;;;;;;5032930;28;20556;-75
2022/07/20 13:05:11;;;;;;;15.20;13.57;;;;;;;;;;5033241;28;20450;-75
2022/07/20 13:07:38;;;;;;;14.63;13.53;;;;;;;;;;5033671;28;20450;-76
2022/07/20 13:10:05;;;;;;;14.50;13.10;;;;;;;;;;5045408;28;20538;-76
2022/07/20 13:12:32;;;;;;;17.90;14.17;;;;;;;;;;5052807;28;20526;-75
2022/07/20 13:14:59;;;;;;;16.03;14.20;;;;;;;;;;5053430;28;21010;-75
2022/07/20 13:17:28;;;;;;;14.93;13.60;;;;;;;;;;5053410;28;20641;-75
2022/07/20 13:19:55;;;;;;;16.53;15.00;;;;;;;;;;5052670;28;20471;-76
2022/07/20 13:22:22;;;;;;;17.30;15.47;;;;;;;;;;5052536;28;20503;-76
2022/07/20 13:24:49;;;;;;;19.13;17.10;;;;;;;;;;5052715;28;20445;-76
2022/07/20 13:27:16;;;;;;;17.10;15.73;;;;;;;;;;5053359;28;20457;-77
2022/07/20 13:29:43;;;;;;;18.10;16.33;;;;;;;;;;5052739;28;20539;-77
2022/07/20 13:32:10;;;;;;;18.03;16.53;;;;;;;;;;5052379;28;20511;-76
2022/07/20 13:34:38;;;;;;;18.07;16.13;;;;;;;;;;5052544;28;20454;-76
2022/07/20 13:37:05;;;;;;;18.60;17.10;;;;;;;;;;5056989;28;20445;-76
2022/07/20 13:39:33;;;;;;;18.33;16.70;;;;;;;;;;5059392;28;20433;-77
2022/07/20 13:42:00;;;;;;;18.57;16.83;;;;;;;;;;5059590;28;20456;-75
2022/07/20 13:44:27;;;;;;;19.80;17.80;;;;;;;;;;5059644;28;20462;-77
2022/07/20 13:46:54;;;;;;;19.47;17.60;;;;;;;;;;5060400;28;20942;-76
2022/07/20 13:49:21;;;;;;;19.17;17.20;;;;;;;;;;5060080;28;20477;-76
2022/07/20 13:51:49;;;;;;;17.87;16.07;;;;;;;;;;5058682;28;20507;-75
2022/07/20 13:54:16;;;;;;;20.10;18.13;;;;;;;;;;5057598;28;20488;-76
2022/07/20 13:56:43;;;;;;;20.73;18.77;;;;;;;;;;5053780;28;20437;-77
2022/07/20 13:59:10;;;;;;;21.60;19.40;;;;;;;;;;5053181;28;20437;-76
2022/07/20 14:01:43;;;;;;;20.10;18.20;;;;;;;;;;5053122;28;20503;-77
2022/07/20 14:04:11;;;;;;;20.10;18.27;;;;;;;;;;5053100;28;20556;-78
2022/07/20 14:06:38;;;;;;;19.73;17.97;;;;;;;;;;5053511;28;21023;-76
2022/07/20 14:09:07;;;;;;;22.00;19.33;;;;;;;;;;5053015;28;20442;-77
2022/07/20 14:11:34;;;;;;;20.73;18.87;;;;;;;;;;5052978;28;20441;-77
2022/07/20 14:14:01;;;;;;;20.47;18.67;;;;;;;;;;5052915;28;20519;-76
2022/07/20 14:16:28;;;;;;;21.57;19.37;;;;;;;;;;5052985;28;20789;-77
2022/07/20 14:18:55;;;;;;;21.67;19.60;;;;;;;;;;5053987;28;20525;-77
2022/07/20 14:21:22;;;;;;;21.13;19.37;;;;;;;;;;5054124;28;20446;-76
2022/07/20 14:23:49;;;;;;;21.40;19.33;;;;;;;;;;5054458;28;20469;-77
2022/07/20 14:26:18;;;;;;;22.37;20.07;;;;;;;;;;5059456;28;20438;-76
2022/07/20 14:28:46;;;;;;;22.00;19.70;;;;;;;;;;5071582;28;20484;-77
2022/07/20 14:31:13;;;;;;;20.70;18.77;;;;;;;;;;5069730;28;20508;-77
2022/07/20 14:33:40;;;;;;;20.43;18.53;;;;;;;;;;5068816;28;20480;-77
2022/07/20 14:36:07;;;;;;;21.10;19.23;;;;;;;;;;5061900;28;20499;-76
2022/07/20 14:38:34;;;;;;;20.87;18.73;;;;;;;;;;5062468;28;20952;-76
2022/07/20 14:41:01;;;;;;;21.60;19.50;;;;;;;;;;5057462;28;20473;-77
2022/07/20 14:43:30;;;;;;;25.67;18.67;;;;;;;;;;5058312;28;20465;-77